createdAt,value
2022-09-12T00:02:22.426Z,101381.47
2022-09-12T00:05:28.215Z,101368.72
2022-09-12T00:08:30.749Z,101375.63
2022-09-12T00:11:33.477Z,101375.06
2022-09-12T00:14:36.643Z,101372.31
2022-09-12T00:17:40.108Z,101375.03
2022-09-12T00:20:44.609Z,101378.88
2022-09-12T00:23:48.246Z,101374.78
2022-09-12T00:26:50.846Z,101371.16
2022-09-12T00:29:53.611Z,101373.94
2022-09-12T00:32:56.171Z,101371.69
2022-09-12T00:36:00.360Z,101365.91
2022-09-12T00:39:03.589Z,101365.91
2022-09-12T00:42:07.044Z,101364.84
2022-09-12T00:45:22.253Z,101366.50
2022-09-12T00:48:32.871Z,101362.63
2022-09-12T00:51:38.655Z,101371.47
2022-09-12T00:54:45.178Z,101359.25
2022-09-12T00:57:54.630Z,101378.34
2022-09-12T01:00:58.499Z,101373.06
2022-09-12T01:04:01.969Z,101366.47
2022-09-12T01:07:07.467Z,101369.25
2022-09-12T01:10:11.468Z,101370.59
2022-09-12T01:13:14.348Z,101368.59
2022-09-12T01:16:17.544Z,101355.03
2022-09-12T01:19:41.745Z,101371.63
2022-09-12T01:23:12.996Z,101367.25
2022-09-12T01:26:49.157Z,101365.22
2022-09-12T01:30:16.562Z,101364.28
2022-09-12T01:33:44.436Z,101358.50
2022-09-12T01:36:59.215Z,101361.59
2022-09-12T01:40:10.428Z,101356.94
2022-09-12T01:43:24.989Z,101361.88
2022-09-12T01:46:36.786Z,101358.31
2022-09-12T01:49:47.353Z,101361.09
2022-09-12T01:52:54.694Z,101355.22
2022-09-12T01:56:01.215Z,101350.22
2022-09-12T01:59:08.746Z,101351.09
2022-09-12T02:02:16.608Z,101350.53
2022-09-12T02:05:26.507Z,101352.47
2022-09-12T02:08:33.724Z,101353.03
2022-09-12T02:11:41.197Z,101355.25
2022-09-12T02:14:49.590Z,101355.22
2022-09-12T02:17:56.164Z,101353.22
2022-09-12T02:21:02.572Z,101346.63
2022-09-12T02:24:08.576Z,101356.50
2022-09-12T02:27:15.136Z,101351.72
2022-09-12T02:30:19.755Z,101359.47
2022-09-12T02:33:28.255Z,101357.31
2022-09-12T02:36:46.375Z,101360.06
2022-09-12T02:39:49.076Z,101355.94
2022-09-12T02:42:51.838Z,101346.56
2022-09-12T02:45:54.490Z,101351.53
2022-09-12T02:48:58.349Z,101350.16
2022-09-12T02:52:03.493Z,101359.81
2022-09-12T02:55:08.162Z,101360.38
2022-09-12T02:58:16.012Z,101363.13
2022-09-12T03:01:30.256Z,101361.47
2022-09-12T03:04:48.349Z,101357.88
2022-09-12T03:08:42.829Z,101360.03
2022-09-12T03:12:03.792Z,101359.19
2022-09-12T03:15:16.442Z,101354.22
2022-09-12T03:18:32.602Z,101351.66
2022-09-12T03:21:43.454Z,101349.97
2022-09-12T03:24:54.832Z,101354.13
2022-09-12T03:28:06.117Z,101355.06
2022-09-12T03:31:16.476Z,101345.41
2022-09-12T03:34:19.549Z,101358.47
2022-09-12T03:37:22.096Z,101352.41
2022-09-12T03:40:24.766Z,101349.09
2022-09-12T03:43:31.849Z,101359.78
2022-09-12T03:46:34.616Z,101363.91
2022-09-12T03:49:37.215Z,101363.84
2022-09-12T03:52:39.973Z,101366.78
2022-09-12T03:55:42.543Z,101362.91
2022-09-12T03:58:47.094Z,101369.88
2022-09-12T04:01:49.720Z,101372.47
2022-09-12T04:04:53.109Z,101373.84
2022-09-12T04:07:55.705Z,101355.94
2022-09-12T04:11:04.090Z,101360.66
2022-09-12T04:14:08.011Z,101361.28
2022-09-12T04:17:10.898Z,101366.00
2022-09-12T04:20:13.483Z,101361.84
2022-09-12T04:23:16.199Z,101362.88
2022-09-12T04:26:20.852Z,101356.22
2022-09-12T04:29:24.979Z,101361.47
2022-09-12T04:32:27.645Z,101366.44
2022-09-12T04:35:30.274Z,101369.00
2022-09-12T04:38:33.387Z,101365.69
2022-09-12T04:41:37.563Z,101360.19
2022-09-12T04:44:41.504Z,101356.19
2022-09-12T04:47:44.057Z,101362.75
2022-09-12T04:50:46.638Z,101366.06
2022-09-12T04:53:50.838Z,101359.59
2022-09-12T04:56:54.825Z,101360.53
2022-09-12T05:00:01.870Z,101364.56
2022-09-12T05:03:08.456Z,101363.31
2022-09-12T05:06:13.604Z,101360.13
2022-09-12T05:09:16.682Z,101360.84
2022-09-12T05:12:19.355Z,101358.56
2022-09-12T05:15:24.550Z,101354.00
2022-09-12T05:18:33.055Z,101367.22
2022-09-12T05:21:35.869Z,101367.22
2022-09-12T05:24:39.083Z,101372.81
2022-09-12T05:27:41.812Z,101376.47
2022-09-12T05:30:45.977Z,101371.31
2022-09-12T05:33:50.951Z,101368.81
2022-09-12T05:36:53.507Z,101376.81
2022-09-12T05:39:56.221Z,101376.66
2022-09-12T05:42:58.787Z,101381.44
2022-09-12T05:46:03.848Z,101376.34
2022-09-12T05:49:07.710Z,101380.03
2022-09-12T05:52:10.398Z,101378.47
2022-09-12T05:55:13.391Z,101383.88
2022-09-12T05:58:16.133Z,101396.50
2022-09-12T06:01:21.161Z,101387.94
2022-09-12T06:04:24.913Z,101400.88
2022-09-12T06:07:27.472Z,101394.34
2022-09-12T06:10:30.133Z,101401.78
2022-09-12T06:13:33.096Z,101409.56
2022-09-12T06:16:37.683Z,101403.75
2022-09-12T06:19:40.443Z,101407.72
2022-09-12T06:22:43.480Z,101416.59
2022-09-12T06:25:48.519Z,101412.63
2022-09-12T06:28:51.509Z,101411.09
2022-09-12T06:31:55.851Z,101420.56
2022-09-12T06:34:58.481Z,101423.94
2022-09-12T06:38:01.901Z,101420.00
2022-09-12T06:41:05.503Z,101416.84
2022-09-12T06:44:08.256Z,101413.25
2022-09-12T06:47:12.882Z,101415.75
2022-09-12T06:50:15.780Z,101418.59
2022-09-12T06:53:18.502Z,101420.34
2022-09-12T06:56:23.116Z,101411.94
2022-09-12T06:59:25.797Z,101415.63
2022-09-12T07:02:29.904Z,101407.72
2022-09-12T07:05:34.893Z,101412.84
2022-09-12T07:08:38.368Z,101409.50
2022-09-12T07:11:43.050Z,101404.28
2022-09-12T07:14:45.755Z,101402.06
2022-09-12T07:17:49.655Z,101395.00
2022-09-12T07:20:52.319Z,101394.75
2022-09-12T07:23:57.769Z,101400.47
2022-09-12T07:27:00.457Z,101406.97
2022-09-12T07:30:03.088Z,101406.00
2022-09-12T07:33:06.994Z,101404.84
2022-09-12T07:36:13.025Z,101401.47
2022-09-12T07:39:15.791Z,101405.03
2022-09-12T07:42:18.534Z,101397.78
2022-09-12T07:45:21.096Z,101407.41
2022-09-12T07:48:25.362Z,101406.25
2022-09-12T07:51:29.484Z,101410.03
2022-09-12T07:54:33.364Z,101402.25
2022-09-12T07:57:36.083Z,101403.63
2022-09-12T08:00:38.657Z,101417.50
2022-09-12T08:03:44.202Z,101406.78
2022-09-12T08:06:46.771Z,101412.13
2022-09-12T08:09:49.451Z,101412.25
2022-09-12T08:12:52.163Z,101420.63
2022-09-12T08:15:59.792Z,101422.69
2022-09-12T08:19:04.452Z,101421.22
2022-09-12T08:22:07.229Z,101420.91
2022-09-12T08:25:10.992Z,101421.69
2022-09-12T08:28:13.721Z,101414.97
2022-09-12T08:31:18.468Z,101413.66
2022-09-12T08:34:22.528Z,101413.50
2022-09-12T08:37:25.409Z,101413.63
2022-09-12T08:40:28.132Z,101419.06
2022-09-12T08:43:51.048Z,101425.25
2022-09-12T08:47:12.481Z,101406.81
2022-09-12T08:50:20.025Z,101404.06
2022-09-12T08:53:27.200Z,101401.47
2022-09-12T08:56:37.301Z,101407.63
2022-09-12T08:59:42.785Z,101406.25
2022-09-12T09:03:10.393Z,101401.13
2022-09-12T09:06:27.933Z,101407.31
2022-09-12T09:09:43.584Z,101404.31
2022-09-12T09:12:55.710Z,101396.16
2022-09-12T09:16:07.133Z,101404.94
2022-09-12T09:19:17.534Z,101402.31
2022-09-12T09:22:33.351Z,101411.00
2022-09-12T09:25:44.032Z,101393.06
2022-09-12T09:28:51.293Z,101391.91
2022-09-12T09:31:57.806Z,101399.38
2022-09-12T09:35:00.627Z,101392.75
2022-09-12T09:38:15.445Z,101393.72
2022-09-12T09:41:38.726Z,101382.78
2022-09-12T09:44:41.935Z,101390.88
2022-09-12T09:47:47.025Z,101390.94
2022-09-12T09:50:51.169Z,101388.44
2022-09-12T09:54:01.010Z,101386.66
2022-09-12T09:57:03.844Z,101381.91
2022-09-12T10:00:25.969Z,101372.94
2022-09-12T10:03:34.397Z,101366.31
2022-09-12T10:06:39.029Z,101365.50
2022-09-12T10:09:43.468Z,101357.94
2022-09-12T10:12:46.387Z,101367.75
2022-09-12T10:15:59.223Z,101359.31
2022-09-12T10:19:03.720Z,101354.88
2022-09-12T10:22:07.856Z,101355.97
2022-09-12T10:25:16.643Z,101369.59
2022-09-12T10:28:25.724Z,101367.47
2022-09-12T10:31:30.962Z,101363.84
2022-09-12T10:34:37.488Z,101362.22
2022-09-12T10:37:41.752Z,101362.56
2022-09-12T10:40:45.930Z,101357.66
2022-09-12T10:43:48.915Z,101355.13
2022-09-12T10:46:51.516Z,101356.75
2022-09-12T10:49:54.224Z,101366.56
2022-09-12T10:53:13.381Z,101366.34
2022-09-12T10:56:20.577Z,101353.38
2022-09-12T10:59:32.263Z,101368.22
2022-09-12T11:02:50.177Z,101351.16
2022-09-12T11:05:57.183Z,101349.38
2022-09-12T11:09:07.007Z,101350.03
2022-09-12T11:12:21.590Z,101346.78
2022-09-12T11:15:41.129Z,101348.16
2022-09-12T11:19:04.886Z,101341.84
2022-09-12T11:22:29.907Z,101335.44
2022-09-12T11:25:41.852Z,101345.06
2022-09-12T11:28:54.685Z,101343.38
2022-09-12T11:32:14.425Z,101347.56
2022-09-12T11:35:25.959Z,101339.06
2022-09-12T11:38:47.117Z,101338.06
2022-09-12T11:41:57.142Z,101341.50
2022-09-12T11:45:06.724Z,101332.94
2022-09-12T11:48:16.708Z,101324.16
2022-09-12T11:51:21.920Z,101316.56
2022-09-12T11:54:29.962Z,101328.81
2022-09-12T11:57:40.992Z,101317.72
2022-09-12T12:00:48.445Z,101315.50
2022-09-12T12:03:52.696Z,101309.63
2022-09-12T12:07:04.247Z,101311.66
2022-09-12T12:10:09.228Z,101316.69
2022-09-12T12:13:20.491Z,101316.19
2022-09-12T12:16:28.313Z,101303.25
2022-09-12T12:19:35.741Z,101311.66
2022-09-12T12:22:38.716Z,101309.13
2022-09-12T12:25:52.932Z,101295.88
2022-09-12T12:29:01.931Z,101300.84
2022-09-12T12:32:23.220Z,101299.25
2022-09-12T12:35:40.547Z,101291.06
2022-09-12T12:38:43.212Z,101289.09
2022-09-12T12:41:46.844Z,101302.13
2022-09-12T12:44:51.530Z,101306.44
2022-09-12T12:47:58.516Z,101303.47
2022-09-12T12:51:23.553Z,101309.19
2022-09-12T12:54:48.691Z,101297.16
2022-09-12T12:57:52.698Z,101294.88
2022-09-12T13:01:08.631Z,101293.09
2022-09-12T13:04:18.797Z,101288.91
2022-09-12T13:07:31.165Z,101291.81
2022-09-12T13:10:34.050Z,101290.56
2022-09-12T13:13:39.842Z,101288.44
2022-09-12T13:16:57.555Z,101281.28
2022-09-12T13:20:28.305Z,101277.38
2022-09-12T13:23:33.868Z,101272.44
2022-09-12T13:26:42.733Z,101273.50
2022-09-12T13:29:45.492Z,101264.22
2022-09-12T13:32:48.322Z,101272.28
2022-09-12T13:36:15.643Z,101254.38
2022-09-12T13:39:24.775Z,101256.69
2022-09-12T13:42:41.914Z,101262.44
2022-09-12T13:45:46.807Z,101263.13
2022-09-12T13:48:49.757Z,101252.59
2022-09-12T13:52:05.931Z,101251.75
2022-09-12T13:55:29.491Z,101240.72
2022-09-12T13:58:34.504Z,101250.78
2022-09-12T14:01:42.280Z,101243.53
2022-09-12T14:05:05.712Z,101244.03
2022-09-12T14:08:14.950Z,101240.91
2022-09-12T14:11:26.318Z,101241.06
2022-09-12T14:14:33.997Z,101245.19
2022-09-12T14:17:39.374Z,101236.94
2022-09-12T14:20:42.905Z,101239.75
2022-09-12T14:23:49.361Z,101235.75
2022-09-12T14:26:54.281Z,101237.56
2022-09-12T14:30:03.325Z,101235.44
2022-09-12T14:33:17.793Z,101238.19
2022-09-12T14:36:25.454Z,101236.50
2022-09-12T14:39:34.397Z,101228.47
2022-09-12T14:42:37.353Z,101221.91
2022-09-12T14:45:40.101Z,101225.84
2022-09-12T14:48:47.816Z,101222.25
2022-09-12T14:51:57.149Z,101219.78
2022-09-12T14:55:03.893Z,101215.19
2022-09-12T14:58:16.990Z,101216.47
2022-09-12T15:01:25.467Z,101208.88
2022-09-12T15:04:47.931Z,101211.66
2022-09-12T15:07:56.199Z,101205.06
2022-09-12T15:11:00.679Z,101202.72
2022-09-12T15:14:08.675Z,101202.72
2022-09-12T15:17:11.348Z,101205.69
2022-09-12T15:20:15.411Z,101205.69
2022-09-12T15:23:40.947Z,101198.63
2022-09-12T15:26:44.835Z,101197.91
2022-09-12T15:29:47.586Z,101203.19
2022-09-12T15:32:50.250Z,101199.56
2022-09-12T15:35:53.953Z,101196.59
2022-09-12T15:38:57.160Z,101187.53
2022-09-12T15:42:01.295Z,101188.16
2022-09-12T15:45:17.801Z,101190.59
2022-09-12T15:48:21.280Z,101183.34
2022-09-12T15:51:23.974Z,101188.72
2022-09-12T15:54:26.638Z,101189.38
2022-09-12T15:57:30.581Z,101188.06
2022-09-12T16:00:33.722Z,101181.78
2022-09-12T16:03:36.369Z,101181.91
2022-09-12T16:06:39.142Z,101184.22
2022-09-12T16:09:41.860Z,101181.84
2022-09-12T16:12:46.463Z,101185.41
2022-09-12T16:15:49.273Z,101172.72
2022-09-12T16:18:51.920Z,101174.38
2022-09-12T16:21:54.733Z,101173.19
2022-09-12T16:24:57.333Z,101174.34
2022-09-12T16:28:01.863Z,101175.28
2022-09-12T16:31:06.388Z,101160.31
2022-09-12T16:34:09.119Z,101160.63
2022-09-12T16:37:11.722Z,101156.63
2022-09-12T16:40:15.451Z,101165.97
2022-09-12T16:43:20.379Z,101163.31
2022-09-12T16:46:25.164Z,101158.16
2022-09-12T16:49:27.762Z,101152.81
2022-09-12T16:52:31.276Z,101146.06
2022-09-12T16:55:33.907Z,101144.63
2022-09-12T16:58:42.059Z,101148.78
2022-09-12T17:01:45.556Z,101135.06
2022-09-12T17:04:48.953Z,101137.47
2022-09-12T17:07:51.869Z,101132.63
2022-09-12T17:10:54.677Z,101132.03
2022-09-12T17:14:05.381Z,101129.06
2022-09-12T17:17:08.724Z,101123.91
2022-09-12T17:20:11.818Z,101119.75
2022-09-12T17:23:14.451Z,101121.22
2022-09-12T17:26:17.549Z,101124.41
2022-09-12T17:29:21.923Z,101120.06
2022-09-12T17:32:24.551Z,101123.25
2022-09-12T17:35:27.160Z,101125.63
2022-09-12T17:38:32.645Z,101125.94
2022-09-12T17:41:35.184Z,101122.09
2022-09-12T17:44:39.389Z,101130.31
2022-09-12T17:47:42.868Z,101130.81
2022-09-12T17:50:45.639Z,101131.78
2022-09-12T17:53:48.323Z,101126.09
2022-09-12T17:56:52.458Z,101123.47
2022-09-12T17:59:56.526Z,101132.44
2022-09-12T18:02:58.287Z,101131.91
2022-09-12T18:06:01.114Z,101133.91
2022-09-12T18:09:06.390Z,101131.00
2022-09-12T18:12:10.055Z,101140.00
2022-09-12T18:15:14.288Z,101139.00
2022-09-12T18:18:16.858Z,101139.69
2022-09-12T18:21:19.917Z,101142.34
2022-09-12T18:24:22.890Z,101135.72
2022-09-12T18:27:25.693Z,101131.06
2022-09-12T18:30:30.919Z,101126.97
2022-09-12T18:33:35.081Z,101122.63
2022-09-12T18:36:37.757Z,101123.34
2022-09-12T18:39:40.384Z,101130.13
2022-09-12T18:42:43.015Z,101129.94
2022-09-12T18:45:47.504Z,101129.78
2022-09-12T18:48:50.415Z,101130.69
2022-09-12T18:51:52.997Z,101124.16
2022-09-12T18:54:55.695Z,101121.13
2022-09-12T18:57:58.444Z,101119.34
2022-09-12T19:01:09.733Z,101112.22
2022-09-12T19:04:15.957Z,101102.88
2022-09-12T19:07:18.845Z,101103.69
2022-09-12T19:10:21.445Z,101096.56
2022-09-12T19:13:24.242Z,101099.16
2022-09-12T19:16:29.565Z,101091.16
2022-09-12T19:19:32.344Z,101092.56
2022-09-12T19:22:34.909Z,101096.75
2022-09-12T19:25:37.661Z,101089.38
2022-09-12T19:28:40.831Z,101088.84
2022-09-12T19:31:44.969Z,101091.34
2022-09-12T19:34:47.959Z,101087.53
2022-09-12T19:37:50.536Z,101085.63
2022-09-12T19:40:57.817Z,101078.47
2022-09-12T19:44:00.699Z,101083.16
2022-09-12T19:47:04.926Z,101088.41
2022-09-12T19:50:08.471Z,101087.63
2022-09-12T19:53:11.192Z,101082.38
2022-09-12T19:56:15.091Z,101070.53
2022-09-12T19:59:17.767Z,101069.22
2022-09-12T20:02:21.762Z,101068.69
2022-09-12T20:05:24.481Z,101072.44
2022-09-12T20:08:27.040Z,101066.66
2022-09-12T20:11:29.719Z,101057.59
2022-09-12T20:14:32.276Z,101059.16
2022-09-12T20:17:36.586Z,101061.91
2022-09-12T20:20:39.158Z,101063.03
2022-09-12T20:23:41.941Z,101065.56
2022-09-12T20:26:44.832Z,101056.88
2022-09-12T20:29:47.587Z,101054.47
2022-09-12T20:32:51.637Z,101046.78
2022-09-12T20:35:54.313Z,101045.50
2022-09-12T20:38:59.880Z,101052.44
2022-09-12T20:42:02.712Z,101046.97
2022-09-12T20:45:06.446Z,101047.22
2022-09-12T20:48:10.893Z,101047.63
2022-09-12T20:51:14.153Z,101037.94
2022-09-12T20:54:17.159Z,101044.50
2022-09-12T20:57:19.769Z,101046.72
2022-09-12T21:00:22.510Z,101037.03
2022-09-12T21:03:26.472Z,101034.59
2022-09-12T21:06:29.662Z,101036.19
2022-09-12T21:09:32.244Z,101028.94
2022-09-12T21:12:35.039Z,101046.97
2022-09-12T21:15:37.730Z,101041.72
2022-09-12T21:18:42.418Z,101031.78
2022-09-12T21:21:45.139Z,101034.13
2022-09-12T21:24:47.877Z,101037.44
2022-09-12T21:27:50.421Z,101025.53
2022-09-12T21:30:53.616Z,101019.81
2022-09-12T21:33:57.579Z,101014.34
2022-09-12T21:37:00.318Z,101021.53
2022-09-12T21:40:03.437Z,101017.53
2022-09-12T21:43:11.863Z,101017.88
2022-09-12T21:46:15.571Z,101025.97
2022-09-12T21:49:19.645Z,101015.50
2022-09-12T21:52:22.342Z,101015.00
2022-09-12T21:55:27.105Z,101000.66
2022-09-12T21:58:42.933Z,100998.44
2022-09-12T22:01:45.598Z,100998.94
2022-09-12T22:04:50.275Z,100995.13
2022-09-12T22:07:53.136Z,100989.34
2022-09-12T22:11:00.747Z,100987.09
2022-09-12T22:14:03.379Z,100987.19
2022-09-12T22:17:06.423Z,100973.03
2022-09-12T22:20:10.751Z,100973.03
2022-09-12T22:23:31.832Z,100970.81
2022-09-12T22:26:43.214Z,100963.06
2022-09-12T22:29:46.212Z,100968.34
2022-09-12T22:32:49.672Z,100954.75
2022-09-12T22:35:53.709Z,100945.91
2022-09-12T22:38:57.239Z,100948.28
2022-09-12T22:41:59.944Z,100947.94
2022-09-12T22:45:02.696Z,100954.84
2022-09-12T22:48:09.020Z,100927.47
2022-09-12T22:51:14.458Z,100929.13
2022-09-12T22:54:17.086Z,100925.84
2022-09-12T22:57:19.749Z,100923.69
2022-09-12T23:00:23.549Z,100913.94
2022-09-12T23:03:26.258Z,100911.16
2022-09-12T23:06:30.966Z,100899.97
2022-09-12T23:09:35.582Z,100903.03
2022-09-12T23:12:38.414Z,100901.03
2022-09-12T23:15:41.422Z,100903.56
2022-09-12T23:18:44.114Z,100909.88
2022-09-12T23:21:48.398Z,100908.75
2022-09-12T23:24:50.992Z,100908.69
2022-09-12T23:27:54.068Z,100898.97
2022-09-12T23:30:56.669Z,100901.22
2022-09-12T23:34:01.959Z,100898.16
2022-09-12T23:37:05.876Z,100888.28
2022-09-12T23:40:09.907Z,100893.81
2022-09-12T23:43:12.478Z,100892.69
2022-09-12T23:46:17.443Z,100892.72
2022-09-12T23:49:20.165Z,100886.44
2022-09-12T23:52:24.085Z,100884.56
2022-09-12T23:55:26.827Z,100875.78
2022-09-12T23:58:30.141Z,100873.31
